createdAt,value
2019-01-19T00:00:34.813Z,31.77
2019-01-19T00:02:35.660Z,35.93
2019-01-19T00:04:36.765Z,35.17
2019-01-19T00:06:37.948Z,36.70
2019-01-19T00:08:39.107Z,34.63
2019-01-19T00:10:40.316Z,38.43
2019-01-19T00:12:41.494Z,33.87
2019-01-19T00:14:42.347Z,32.53
2019-01-19T00:16:43.449Z,30.57
2019-01-19T00:18:44.317Z,33.30
2019-01-19T00:20:45.180Z,30.03
2019-01-19T00:22:46.016Z,34.37
2019-01-19T00:24:46.857Z,31.43
2019-01-19T00:26:47.717Z,30.80
2019-01-19T00:28:48.557Z,31.73
2019-01-19T00:30:49.404Z,33.97
2019-01-19T00:32:50.340Z,30.07
2019-01-19T00:34:51.281Z,31.13
2019-01-19T00:36:52.229Z,34.40
2019-01-19T00:38:53.064Z,31.80
2019-01-19T00:40:54.187Z,34.37
2019-01-19T00:42:55.036Z,30.47
2019-01-19T00:44:55.961Z,33.20
2019-01-19T00:46:57.000Z,31.33
2019-01-19T00:48:57.820Z,31.87
2019-01-19T00:50:58.659Z,31.53
2019-01-19T00:52:59.621Z,29.93
2019-01-19T00:55:00.465Z,31.20
2019-01-19T00:57:01.296Z,29.97
2019-01-19T00:59:02.213Z,31.83
2019-01-19T01:01:03.136Z,32.73
2019-01-19T01:03:04.076Z,29.40
2019-01-19T01:05:04.945Z,29.03
2019-01-19T01:07:05.841Z,32.07
2019-01-19T01:09:06.768Z,32.87
2019-01-19T01:11:07.713Z,31.90
2019-01-19T01:13:08.569Z,29.00
2019-01-19T01:15:09.657Z,28.87
2019-01-19T01:17:10.560Z,30.20
2019-01-19T01:19:11.429Z,33.80
2019-01-19T01:21:12.565Z,33.77
2019-01-19T01:23:13.388Z,35.03
2019-01-19T01:25:14.333Z,33.67
2019-01-19T01:27:15.472Z,35.13
2019-01-19T01:29:16.353Z,38.07
2019-01-19T01:31:17.197Z,34.83
2019-01-19T01:33:18.036Z,37.13
2019-01-19T01:35:18.896Z,31.07
2019-01-19T01:37:19.739Z,33.10
2019-01-19T01:39:20.893Z,31.33
2019-01-19T01:41:21.721Z,37.90
2019-01-19T01:43:22.560Z,33.43
2019-01-19T01:45:23.392Z,36.30
2019-01-19T01:47:24.232Z,32.63
2019-01-19T01:49:25.165Z,31.47
2019-01-19T01:51:26.010Z,30.40
2019-01-19T01:53:26.866Z,31.33
2019-01-19T01:55:27.709Z,30.47
2019-01-19T01:57:28.553Z,32.27
2019-01-19T01:59:29.400Z,29.90
2019-01-19T02:01:30.347Z,32.80
2019-01-19T02:03:31.192Z,48.70
2019-01-19T02:05:32.053Z,42.23
2019-01-19T02:07:32.898Z,35.20
2019-01-19T02:09:33.743Z,35.50
2019-01-19T02:11:34.595Z,30.23
2019-01-19T02:13:35.420Z,30.17
2019-01-19T02:15:36.270Z,27.80
2019-01-19T02:17:37.091Z,26.83
2019-01-19T02:19:38.044Z,29.27
2019-01-19T02:21:38.872Z,27.47
2019-01-19T02:23:40.039Z,24.40
2019-01-19T02:25:40.888Z,26.33
2019-01-19T02:27:41.740Z,28.20
2019-01-19T02:29:42.877Z,30.47
2019-01-19T02:31:43.700Z,28.10
2019-01-19T02:33:44.529Z,28.07
2019-01-19T02:35:48.572Z,28.33
2019-01-19T02:37:48.101Z,28.73
2019-01-19T02:39:48.931Z,27.37
2019-01-19T02:41:49.778Z,29.33
2019-01-19T02:43:50.917Z,28.40
2019-01-19T02:45:51.768Z,27.43
2019-01-19T02:47:52.590Z,26.93
2019-01-19T02:49:53.737Z,26.53
2019-01-19T02:51:54.674Z,25.33
2019-01-19T02:53:55.573Z,25.70
2019-01-19T02:55:56.910Z,27.67
2019-01-19T02:57:57.740Z,25.20
2019-01-19T02:59:58.949Z,28.53
2019-01-19T03:02:00.049Z,26.70
2019-01-19T03:04:00.872Z,29.27
2019-01-19T03:06:01.716Z,25.40
2019-01-19T03:08:02.677Z,30.10
2019-01-19T03:10:03.511Z,27.70
2019-01-19T03:12:04.384Z,26.40
2019-01-19T03:14:05.229Z,26.43
2019-01-19T03:16:06.068Z,23.77
2019-01-19T03:18:07.260Z,23.37
2019-01-19T03:20:08.093Z,26.67
2019-01-19T03:22:08.924Z,27.10
2019-01-19T03:24:09.764Z,26.80
2019-01-19T03:26:10.589Z,26.90
2019-01-19T03:28:11.424Z,24.30
2019-01-19T03:30:12.602Z,25.50
2019-01-19T03:32:13.478Z,25.87
2019-01-19T03:34:14.324Z,25.70
2019-01-19T03:36:15.158Z,28.93
2019-01-19T03:38:16.005Z,28.20
2019-01-19T03:40:16.829Z,27.40
2019-01-19T03:42:17.856Z,25.93
2019-01-19T03:44:18.700Z,26.13
2019-01-19T03:46:19.656Z,25.27
2019-01-19T03:48:20.479Z,28.83
2019-01-19T03:50:21.305Z,23.20
2019-01-19T03:52:22.159Z,24.40
2019-01-19T03:54:22.992Z,22.70
2019-01-19T03:56:23.837Z,26.00
2019-01-19T03:58:24.669Z,27.03
2019-01-19T04:00:25.500Z,24.00
2019-01-19T04:02:26.465Z,22.73
2019-01-19T04:04:27.620Z,25.73
2019-01-19T04:06:28.449Z,25.73
2019-01-19T04:08:29.288Z,26.57
2019-01-19T04:10:30.128Z,28.17
2019-01-19T04:12:30.997Z,26.20
2019-01-19T04:14:32.092Z,23.87
2019-01-19T04:16:32.924Z,24.43
2019-01-19T04:18:33.765Z,26.13
2019-01-19T04:20:34.613Z,25.90
2019-01-19T04:22:35.473Z,26.30
2019-01-19T04:24:36.304Z,21.90
2019-01-19T04:26:37.145Z,24.70
2019-01-19T04:28:38.005Z,28.47
2019-01-19T04:30:38.840Z,22.73
2019-01-19T04:32:39.696Z,23.27
2019-01-19T04:34:40.546Z,28.50
2019-01-19T04:36:41.578Z,26.37
2019-01-19T04:38:42.618Z,25.97
2019-01-19T04:40:43.458Z,27.97
2019-01-19T04:42:45.158Z,24.50
2019-01-19T04:44:46.000Z,23.57
2019-01-19T04:46:46.835Z,22.50
2019-01-19T04:48:47.980Z,23.10
2019-01-19T04:50:49.133Z,22.53
2019-01-19T04:52:49.980Z,24.43
2019-01-19T04:54:50.814Z,21.87
2019-01-19T04:56:51.673Z,26.23
2019-01-19T04:58:52.505Z,22.53
2019-01-19T05:00:53.332Z,20.00
2019-01-19T05:02:54.192Z,21.80
2019-01-19T05:04:55.401Z,23.90
2019-01-19T05:06:56.224Z,21.30
2019-01-19T05:08:57.068Z,23.20
2019-01-19T05:10:57.898Z,22.10
2019-01-19T05:12:58.749Z,21.33
2019-01-19T05:14:59.568Z,24.90
2019-01-19T05:17:00.397Z,22.07
2019-01-19T05:19:01.237Z,23.70
2019-01-19T05:21:02.297Z,25.87
2019-01-19T05:23:03.119Z,21.10
2019-01-19T05:25:03.948Z,23.90
2019-01-19T05:27:05.060Z,19.97
2019-01-19T05:29:05.893Z,20.77
2019-01-19T05:31:07.020Z,24.17
2019-01-19T05:33:07.864Z,21.07
2019-01-19T05:35:08.815Z,25.53
2019-01-19T05:37:09.679Z,24.57
2019-01-19T05:39:10.513Z,21.63
2019-01-19T05:41:11.720Z,24.97
2019-01-19T05:43:12.548Z,22.93
2019-01-19T05:45:13.424Z,24.23
2019-01-19T05:47:14.264Z,23.33
2019-01-19T05:49:15.103Z,24.27
2019-01-19T05:51:15.952Z,21.90
2019-01-19T05:53:16.782Z,22.37
2019-01-19T05:55:17.613Z,22.23
2019-01-19T05:57:18.470Z,23.97
2019-01-19T05:59:19.623Z,20.63
2019-01-19T06:01:21.356Z,21.37
2019-01-19T06:03:22.182Z,21.43
2019-01-19T06:05:23.028Z,21.27
2019-01-19T06:07:23.861Z,23.60
2019-01-19T06:09:24.708Z,23.30
2019-01-19T06:11:25.532Z,24.70
2019-01-19T06:13:26.488Z,21.57
2019-01-19T06:15:27.312Z,22.47
2019-01-19T06:17:28.141Z,24.30
2019-01-19T06:19:29.288Z,27.03
2019-01-19T06:21:33.339Z,27.97
2019-01-19T06:23:34.188Z,27.00
2019-01-19T06:25:35.043Z,25.10
2019-01-19T06:27:35.868Z,28.17
2019-01-19T06:29:36.701Z,25.97
2019-01-19T06:31:37.550Z,27.73
2019-01-19T06:33:38.377Z,25.33
2019-01-19T06:35:39.204Z,25.37
2019-01-19T06:37:40.050Z,25.13
2019-01-19T06:39:40.878Z,27.07
2019-01-19T06:41:41.727Z,28.53
2019-01-19T06:43:42.564Z,25.70
2019-01-19T06:45:43.689Z,29.00
2019-01-19T06:47:44.548Z,22.37
2019-01-19T06:49:45.388Z,24.60
2019-01-19T06:51:46.220Z,25.93
2019-01-19T06:53:48.024Z,26.13
2019-01-19T06:55:48.861Z,23.90
2019-01-19T06:57:50.026Z,25.80
2019-01-19T06:59:50.860Z,24.20
2019-01-19T07:01:51.722Z,21.77
2019-01-19T07:03:52.560Z,26.03
2019-01-19T07:05:53.393Z,25.83
2019-01-19T07:07:54.236Z,23.83
2019-01-19T07:09:55.070Z,25.37
2019-01-19T07:11:56.103Z,28.23
2019-01-19T07:13:56.950Z,27.67
2019-01-19T07:15:57.783Z,28.30
2019-01-19T07:17:58.633Z,25.40
2019-01-19T07:19:59.461Z,24.97
2019-01-19T07:22:00.629Z,28.00
2019-01-19T07:24:01.500Z,25.40
2019-01-19T07:26:02.332Z,24.47
2019-01-19T07:28:03.201Z,28.53
2019-01-19T07:30:04.145Z,26.93
2019-01-19T07:32:04.982Z,27.87
2019-01-19T07:34:05.846Z,28.90
2019-01-19T07:36:06.676Z,24.93
2019-01-19T07:38:07.800Z,26.17
2019-01-19T07:40:08.644Z,27.20
2019-01-19T07:42:09.489Z,25.13
2019-01-19T07:44:10.333Z,27.30
2019-01-19T07:46:11.793Z,24.77
2019-01-19T07:48:12.836Z,26.17
2019-01-19T07:50:13.664Z,27.90
2019-01-19T07:52:14.500Z,27.43
2019-01-19T07:54:15.724Z,26.07
2019-01-19T07:56:16.572Z,26.00
2019-01-19T07:58:17.392Z,25.10
2019-01-19T08:00:18.240Z,25.83
2019-01-19T08:02:19.085Z,26.70
2019-01-19T08:04:19.917Z,25.90
2019-01-19T08:06:21.130Z,25.07
2019-01-19T08:08:21.957Z,25.57
2019-01-19T08:10:22.805Z,25.57
2019-01-19T08:12:23.653Z,25.07
2019-01-19T08:14:24.488Z,26.00
2019-01-19T08:16:25.337Z,23.67
2019-01-19T08:18:26.189Z,23.53
2019-01-19T08:20:27.352Z,25.43
2019-01-19T08:22:28.516Z,26.03
2019-01-19T08:24:29.352Z,24.63
2019-01-19T08:26:30.179Z,22.73
2019-01-19T08:28:31.041Z,24.60
2019-01-19T08:30:31.881Z,21.90
2019-01-19T08:32:32.717Z,25.43
2019-01-19T08:34:33.568Z,22.90
2019-01-19T08:36:34.396Z,24.13
2019-01-19T08:38:35.240Z,21.97
2019-01-19T08:40:36.068Z,25.27
2019-01-19T08:42:37.304Z,24.07
2019-01-19T08:44:38.492Z,22.47
2019-01-19T08:46:39.336Z,21.30
2019-01-19T08:48:40.321Z,24.47
2019-01-19T08:50:41.236Z,23.10
2019-01-19T08:52:42.068Z,23.00
2019-01-19T08:54:42.917Z,20.80
2019-01-19T08:56:43.741Z,23.60
2019-01-19T08:58:44.656Z,22.87
2019-01-19T09:00:45.496Z,28.17
2019-01-19T09:02:46.372Z,42.73
2019-01-19T09:04:47.201Z,18.13
2019-01-19T09:06:48.037Z,21.57
2019-01-19T09:08:48.892Z,22.83
2019-01-19T09:10:50.016Z,22.23
2019-01-19T09:12:50.849Z,21.27
2019-01-19T09:14:51.684Z,23.57
2019-01-19T09:16:52.538Z,23.53
2019-01-19T09:18:53.384Z,22.07
2019-01-19T09:20:54.213Z,22.60
2019-01-19T09:22:59.789Z,25.23
2019-01-19T09:25:00.636Z,24.50
2019-01-19T09:27:01.491Z,23.97
2019-01-19T09:29:02.645Z,24.30
2019-01-19T09:31:03.481Z,26.13
2019-01-19T09:33:04.340Z,26.83
2019-01-19T09:35:05.446Z,24.67
2019-01-19T09:37:06.284Z,27.77
2019-01-19T09:39:07.140Z,25.20
2019-01-19T09:41:07.980Z,26.97
2019-01-19T09:43:08.830Z,24.83
2019-01-19T09:45:09.672Z,24.37
2019-01-19T09:47:10.530Z,23.97
2019-01-19T09:49:11.413Z,26.20
2019-01-19T09:51:12.273Z,25.13
2019-01-19T09:53:13.112Z,25.20
2019-01-19T09:55:14.045Z,23.13
2019-01-19T09:57:14.917Z,23.07
2019-01-19T09:59:15.785Z,26.27
2019-01-19T10:01:16.637Z,24.30
2019-01-19T10:03:17.465Z,25.73
2019-01-19T21:11:14.093Z,51.13
2019-01-19T21:13:15.214Z,48.23
2019-01-19T21:15:16.054Z,51.55
2019-01-19T21:17:16.930Z,47.00
2019-01-19T21:19:17.776Z,49.53
2019-01-19T21:21:18.613Z,46.33
2019-01-19T21:23:19.485Z,43.70
2019-01-19T21:25:20.340Z,46.67
2019-01-19T22:53:16.233Z,56.50
2019-01-19T22:55:17.081Z,55.80
2019-01-19T22:57:17.953Z,55.77
2019-01-19T22:59:18.796Z,55.53
2019-01-19T23:01:20.068Z,59.23
2019-01-19T23:03:21.249Z,59.17
2019-01-19T23:05:22.080Z,57.33
2019-01-19T23:07:22.904Z,57.80
2019-01-19T23:09:23.756Z,60.13
2019-01-19T23:11:24.658Z,56.37
2019-01-19T23:13:25.507Z,58.83
2019-01-19T23:15:26.357Z,62.33
2019-01-19T23:17:27.652Z,57.80
2019-01-19T23:19:28.500Z,58.70
2019-01-19T23:21:29.437Z,56.83
2019-01-19T23:23:30.372Z,56.13
2019-01-19T23:25:31.359Z,59.00
2019-01-19T23:27:32.348Z,59.67
2019-01-19T23:29:33.457Z,60.50
2019-01-19T23:31:34.452Z,59.37
2019-01-19T23:33:35.356Z,60.57
2019-01-19T23:35:36.204Z,58.70
2019-01-19T23:37:37.148Z,57.60
2019-01-19T23:39:38.236Z,61.37
2019-01-19T23:41:39.477Z,56.77
2019-01-19T23:43:40.332Z,62.10
2019-01-19T23:45:41.161Z,57.77
2019-01-19T23:47:42.351Z,58.47
2019-01-19T23:49:43.184Z,57.83
2019-01-19T23:51:44.032Z,61.47
2019-01-19T23:53:45.225Z,58.20
2019-01-19T23:55:46.351Z,56.20
2019-01-19T23:57:47.476Z,56.60
2019-01-19T23:59:48.320Z,56.33
